Porterville, Utah
Current Conditions -  °F | °C
As of 5:58 PM on Thursday 18 Dec 2014 (Local Time) from KHIF Reporting Station
Broken Clouds Broken Clouds  
Wind Chill: 37°   Ceiling: 7500
Heat Index: 37°   Visibility: 10mi
Dew Point: 29°   Wind: 2mph
Humidity: 74%   Direction: 290°WNW
Pressure: 30.16"   Gusts: NA
Location:  41.0884°N, 111.576°W
Report Text: KHIF 190058Z 29002KT 10SM BKN075 03/M02 A3016 RMK AO2A SLP218 T00261017
Loading
Personal Weather Stations






























Interactive Weather Map New forecast layout! Learn more

10-Day Weather Forecast

Advertisements
Track Severe Weather on mobile